Time;durP1;ratioP1;P1;durP2;ratioP2;P2;SDS_P1;SDS_P2;PMS_P1;PMS_P2;Temp;Humidity;BMP_temperature;BMP_pressure;BME280_temperature;BME280_humidity;BME280_pressure;Samples;Min_cycle;Max_cycle;Signal;HPM_P1;HPM_P2
2024/01/31 00:01:22;;;;;;;1.50;0.77;;;;;;;14.20;98.32;100043.75;5043671;28;20049;-87
2024/01/31 00:03:54;;;;;;;1.08;0.75;;;;;;;14.20;99.87;100033.34;5040105;28;20050;-84
2024/01/31 00:06:26;;;;;;;4.65;1.20;;;;;;;14.19;100.00;100036.84;5043810;28;20049;-85
2024/01/31 00:08:57;;;;;;;2.28;0.90;;;;;;;14.22;100.00;100036.84;5040038;28;20050;-85
2024/01/31 00:11:26;;;;;;;1.40;0.65;;;;;;;14.25;100.00;100016.03;5033173;28;20054;-86
2024/01/31 00:16:36;;;;;;;2.80;0.90;;;;;;;14.25;100.00;100010.84;5029537;28;20120;-89
2024/01/31 00:19:05;;;;;;;2.10;0.93;;;;;;;14.25;99.83;99996.09;5037189;28;20049;-85
2024/01/31 00:21:45;;;;;;;1.10;0.80;;;;;;;14.28;99.31;99989.16;5040022;28;20550;-86
2024/01/31 00:24:15;;;;;;;1.45;1.00;;;;;;;14.28;99.54;99977.00;5035306;28;20041;-85
2024/01/31 00:26:45;;;;;;;2.55;0.90;;;;;;;14.31;98.88;99983.94;5036688;28;20072;-87
2024/01/31 00:29:13;;;;;;;1.40;0.80;;;;;;;14.31;99.21;99990.00;5034443;28;20056;-87
2024/01/31 00:31:43;;;;;;;0.88;0.70;;;;;;;14.32;100.00;99991.78;5029511;28;20046;-87
2024/01/31 00:34:12;;;;;;;1.67;1.17;;;;;;;14.35;97.96;99975.28;5038075;28;20053;-87
2024/01/31 00:36:40;;;;;;;1.20;0.90;;;;;;;14.37;96.91;99958.81;5039963;28;20115;-88
2024/01/31 00:39:10;;;;;;;1.10;0.73;;;;;;;14.36;95.96;99941.47;5036972;28;20104;-87
2024/01/31 00:44:22;;;;;;;1.45;0.80;;;;;;;14.40;98.84;99927.56;5035387;28;20455;-86
2024/01/31 00:46:51;;;;;;;1.77;0.82;;;;;;;14.41;95.41;99912.84;5038087;28;20045;-86
2024/01/31 00:49:20;;;;;;;0.98;0.73;;;;;;;14.40;95.10;99901.53;5039438;28;20100;-86
2024/01/31 00:51:52;;;;;;;1.30;0.60;;;;;;;14.39;92.48;99883.34;5032625;28;20072;-87
2024/01/31 00:54:21;;;;;;;1.55;0.60;;;;;;;14.40;90.59;99874.66;5032535;28;20535;-88
2024/01/31 00:56:53;;;;;;;2.17;0.73;;;;;;;14.42;87.82;99867.72;5039063;28;20033;-88
2024/01/31 00:59:22;;;;;;;;;;;;;;;14.41;85.02;99872.06;5035007;28;20058;-86
2024/01/31 01:01:55;;;;;;;0.70;0.55;;;;;;;14.40;79.47;99861.63;5034400;28;19967;-87
2024/01/31 01:04:24;;;;;;;1.65;0.60;;;;;;;14.40;82.00;99853.84;5036688;28;20128;-88
2024/01/31 01:06:53;;;;;;;1.25;0.77;;;;;;;14.38;76.99;99851.22;5037796;28;20088;-87
2024/01/31 01:09:22;;;;;;;0.77;0.45;;;;;;;14.35;83.67;99848.63;5030280;28;20108;-87
2024/01/31 01:12:03;;;;;;;0.68;0.68;;;;;;;14.32;81.87;99853.84;5029941;28;20061;-87
2024/01/31 01:14:32;;;;;;;1.92;0.63;;;;;;;14.31;80.86;99854.69;5022938;28;20041;-87
2024/01/31 01:17:01;;;;;;;0.65;0.55;;;;;;;14.31;88.80;99853.84;5029084;28;20057;-87
2024/01/31 01:19:32;;;;;;;0.88;0.75;;;;;;;14.22;82.16;99849.50;5034919;28;20060;-87
2024/01/31 01:22:01;;;;;;;0.90;0.63;;;;;;;14.23;83.88;99851.25;5034017;28;20049;-88
2024/01/31 01:24:30;;;;;;;1.38;0.50;;;;;;;14.21;88.16;99845.19;5034589;28;20307;-88
2024/01/31 01:27:05;;;;;;;1.35;0.73;;;;;;;14.15;89.98;99817.41;5036623;28;20046;-88
2024/01/31 01:29:44;;;;;;;1.10;0.70;;;;;;;14.15;90.85;99809.59;5032771;28;20099;-87
2024/01/31 01:32:13;;;;;;;4.43;0.98;;;;;;;14.17;91.20;99809.63;5036199;28;20076;-87
2024/01/31 01:34:43;;;;;;;2.97;0.70;;;;;;;14.13;92.56;99784.47;5017176;28;20076;-88
2024/01/31 01:37:20;;;;;;;1.00;0.73;;;;;;;14.06;91.18;99783.59;5030726;28;20054;-86
2024/01/31 01:39:49;;;;;;;1.05;0.90;;;;;;;14.05;90.83;99779.28;5033495;28;20044;-86
2024/01/31 01:42:19;;;;;;;0.63;0.50;;;;;;;14.03;85.42;99761.06;5036366;28;20049;-88
2024/01/31 01:44:48;;;;;;;1.65;0.70;;;;;;;14.06;85.65;99741.13;5038606;28;20053;-88
2024/01/31 01:47:26;;;;;;;0.77;0.70;;;;;;;14.08;89.19;99726.38;5037311;28;20059;-88
2024/01/31 01:49:55;;;;;;;0.98;0.80;;;;;;;14.08;85.77;99721.16;5035926;28;20092;-84
2024/01/31 01:52:25;;;;;;;3.00;1.00;;;;;;;14.06;83.14;99708.16;5028147;28;20101;-85
2024/01/31 01:54:58;;;;;;;1.10;0.80;;;;;;;14.07;82.88;99688.25;5041661;28;20048;-86
2024/01/31 01:57:29;;;;;;;1.27;1.00;;;;;;;14.08;79.39;99689.97;5035122;28;20053;-85
2024/01/31 01:59:59;;;;;;;1.40;0.90;;;;;;;14.06;79.51;99674.34;5037694;28;20057;-84
2024/01/31 02:02:29;;;;;;;1.38;0.60;;;;;;;14.08;80.29;99663.94;5028497;28;20103;-84
2024/01/31 02:05:10;;;;;;;0.77;0.73;;;;;;;14.02;78.32;99649.25;5032874;28;20486;-87
2024/01/31 02:10:06;;;;;;;1.25;0.70;;;;;;;13.96;81.63;99634.50;4994827;28;20054;-84
2024/01/31 02:12:39;;;;;;;2.83;1.20;;;;;;;13.88;79.92;99644.06;4987327;28;20077;-84
2024/01/31 02:15:11;;;;;;;0.98;0.60;;;;;;;13.78;80.30;99637.13;4999933;28;20054;-85
2024/01/31 02:17:40;;;;;;;0.93;0.80;;;;;;;13.75;79.29;99619.81;4997800;28;20061;-83
2024/01/31 02:20:15;;;;;;;1.52;0.88;;;;;;;13.78;81.20;99625.00;4994038;28;20051;-84
2024/01/31 02:22:52;;;;;;;1.25;0.70;;;;;;;13.78;81.54;99613.72;4994937;28;20061;-85
2024/01/31 02:25:20;;;;;;;0.80;0.70;;;;;;;13.69;80.56;99612.00;4993959;28;20301;-87
2024/01/31 02:27:49;;;;;;;3.13;0.50;;;;;;;13.65;77.19;99597.28;4998346;28;20061;-87
2024/01/31 02:30:18;;;;;;;0.73;0.50;;;;;;;13.64;77.26;99597.31;4996499;28;20050;-84
2024/01/31 02:32:50;;;;;;;0.93;0.60;;;;;;;13.64;80.60;99605.09;4992356;28;20058;-89
2024/01/31 02:35:19;;;;;;;0.77;0.60;;;;;;;13.58;81.28;99593.84;4992102;28;20046;-86
2024/01/31 02:37:50;;;;;;;1.27;0.70;;;;;;;13.54;81.62;99593.84;5000998;28;20359;-85
2024/01/31 02:40:28;;;;;;;;;;;;;;;;;;;;;
2024/01/31 02:42:58;;;;;;;0.77;0.55;;;;;;;13.55;83.35;99596.44;4997074;28;20040;-86
2024/01/31 02:45:27;;;;;;;0.98;0.60;;;;;;;13.44;82.57;99603.38;4997211;28;20046;-87
2024/01/31 02:47:56;;;;;;;1.52;0.77;;;;;;;13.39;81.72;99592.13;4996228;28;20046;-86
2024/01/31 02:50:33;;;;;;;1.40;1.02;;;;;;;13.38;83.02;99595.59;4998353;28;20054;-86
2024/01/31 02:53:03;;;;;;;0.90;0.68;;;;;;;13.36;81.58;99592.13;4996344;28;20050;-86
2024/01/31 02:55:32;;;;;;;3.10;1.00;;;;;;;13.38;84.35;99587.81;4992164;28;20062;-86
2024/01/31 02:58:13;;;;;;;;;;;;;;;;;;;;;
2024/01/31 03:00:42;;;;;;;1.83;0.90;;;;;;;13.36;85.15;99589.53;4996196;28;20058;-86
2024/01/31 03:03:11;;;;;;;1.20;0.70;;;;;;;13.35;85.28;99590.38;4999858;28;20046;-85
2024/01/31 03:05:40;;;;;;;1.77;0.85;;;;;;;13.36;85.25;99584.34;4995507;28;20130;-84
2024/01/31 03:08:18;;;;;;;0.88;0.70;;;;;;;13.41;85.29;99582.59;5000325;28;20062;-85
2024/01/31 03:10:48;;;;;;;2.17;0.95;;;;;;;13.41;85.43;99580.84;5001458;28;20113;-86
2024/01/31 03:13:16;;;;;;;2.10;0.68;;;;;;;13.45;84.00;99588.66;4992654;28;20058;-85
2024/01/31 03:15:56;;;;;;;2.85;2.60;;;;;;;13.47;86.72;99590.41;5002868;28;20049;-87
2024/01/31 03:18:24;;;;;;;1.60;0.98;;;;;;;13.51;91.10;99612.03;4998360;28;20507;-85
2024/01/31 03:20:55;;;;;;;2.22;0.90;;;;;;;13.49;85.89;99606.84;4997415;28;20069;-84
2024/01/31 03:23:26;;;;;;;2.15;1.10;;;;;;;13.49;86.24;99612.06;4994160;28;20046;-83
2024/01/31 03:26:00;;;;;;;1.00;0.90;;;;;;;13.52;88.15;99622.44;5001881;28;20042;-87
2024/01/31 03:28:29;;;;;;;1.50;0.93;;;;;;;13.56;89.07;99607.69;4996784;28;20105;-83
2024/01/31 03:31:01;;;;;;;2.90;1.10;;;;;;;13.56;90.97;99608.56;4989988;28;20050;-86
2024/01/31 03:33:37;;;;;;;2.10;1.00;;;;;;;13.59;91.92;99618.97;4993394;28;20050;-87
2024/01/31 03:36:11;;;;;;;2.55;1.80;;;;;;;13.59;94.59;99613.75;4995490;28;20082;-85
2024/01/31 03:38:42;;;;;;;3.75;2.20;;;;;;;13.62;94.52;99631.94;4993967;28;20073;-87
2024/01/31 03:43:55;;;;;;;2.15;1.10;;;;;;;13.65;96.47;99643.22;4992052;28;20043;-87
2024/01/31 03:46:25;;;;;;;4.88;2.05;;;;;;;13.56;98.95;99631.97;4994157;28;20181;-86
2024/01/31 03:48:59;;;;;;;2.42;1.13;;;;;;;13.52;99.27;99619.84;4991289;28;20062;-85
2024/01/31 03:51:28;;;;;;;3.03;1.08;;;;;;;13.49;100.00;99627.66;4988299;28;20062;-81
2024/01/31 03:53:59;;;;;;;2.22;1.17;;;;;;;13.50;100.00;99615.50;4988694;28;20129;-83
2024/01/31 03:56:27;;;;;;;2.30;1.10;;;;;;;13.48;100.00;99645.81;4991197;28;20050;-81
2024/01/31 03:59:07;;;;;;;2.63;1.35;;;;;;;13.50;100.00;99685.69;4990207;28;20141;-83
2024/01/31 04:01:36;;;;;;;4.35;1.50;;;;;;;13.51;100.00;99657.06;4992599;28;20141;-86
2024/01/31 04:04:05;;;;;;;1.80;1.38;;;;;;;13.51;100.00;99641.47;4987668;28;20046;-82
2024/01/31 04:06:37;;;;;;;2.38;1.23;;;;;;;13.52;100.00;99637.16;4994680;28;20050;-83
2024/01/31 04:09:08;;;;;;;4.80;1.52;;;;;;;13.50;100.00;99616.38;4984286;28;20054;-83
2024/01/31 04:11:37;;;;;;;3.80;1.67;;;;;;;13.49;100.00;99575.66;4992363;28;20057;-84
2024/01/31 04:14:06;;;;;;;3.35;1.63;;;;;;;13.47;100.00;99561.81;4991281;28;20053;-83
2024/01/31 04:16:44;;;;;;;2.97;1.65;;;;;;;13.46;100.00;99538.41;4998794;28;20268;-85
2024/01/31 04:19:15;;;;;;;3.10;1.67;;;;;;;13.42;100.00;99537.53;4997306;28;20050;-84
2024/01/31 04:21:44;;;;;;;9.70;2.72;;;;;;;13.36;100.00;99521.97;4996436;28;20137;-85
2024/01/31 04:24:14;;;;;;;5.72;2.45;;;;;;;13.30;100.00;99501.19;4995313;28;20222;-84
2024/01/31 04:26:46;;;;;;;2.03;1.42;;;;;;;13.26;100.00;99489.91;4993382;28;20069;-84
2024/01/31 04:29:15;;;;;;;2.63;1.38;;;;;;;13.24;100.00;99485.59;4999000;28;20061;-84
2024/01/31 04:31:44;;;;;;;2.03;1.05;;;;;;;13.16;100.00;99457.91;4990900;28;20405;-85
2024/01/31 04:34:12;;;;;;;1.98;1.10;;;;;;;13.08;100.00;99441.47;5000033;28;20057;-84
2024/01/31 04:36:50;;;;;;;4.72;0.80;;;;;;;13.01;100.00;99431.97;5006496;28;20057;-84
2024/01/31 04:39:21;;;;;;;1.65;0.80;;;;;;;12.93;100.00;99412.94;5001916;28;20101;-83
2024/01/31 04:41:49;;;;;;;1.48;0.90;;;;;;;12.87;100.00;99398.22;5004712;28;20492;-83
2024/01/31 04:44:21;;;;;;;1.77;0.85;;;;;;;12.83;100.00;99395.63;5002958;28;20046;-83
2024/01/31 04:46:54;;;;;;;1.08;0.85;;;;;;;12.78;100.00;99393.03;4982197;28;20047;-83
2024/01/31 04:49:22;;;;;;;1.13;0.77;;;;;;;12.74;100.00;99397.38;4996684;28;20093;-85
2024/01/31 04:51:51;;;;;;;2.78;1.13;;;;;;;12.73;100.00;99397.38;4997176;28;20054;-85
2024/01/31 04:54:21;;;;;;;1.65;0.70;;;;;;;12.72;100.00;99383.53;4994480;28;20056;-85
2024/01/31 04:56:53;;;;;;;1.85;0.65;;;;;;;12.71;100.00;99376.63;4992196;28;20047;-84
2024/01/31 04:59:22;;;;;;;0.73;0.60;;;;;;;12.71;100.00;99387.03;4990708;28;20058;-84
2024/01/31 05:01:50;;;;;;;1.80;0.95;;;;;;;12.73;100.00;99390.44;4990849;28;20114;-84
2024/01/31 05:04:19;;;;;;;0.60;0.57;;;;;;;12.71;100.00;99391.31;4991112;28;20110;-83
2024/01/31 05:06:49;;;;;;;1.02;0.77;;;;;;;12.68;100.00;99392.19;4994413;28;20058;-83
2024/01/31 05:09:17;;;;;;;0.82;0.77;;;;;;;12.68;100.00;99425.94;4998422;28;20081;-83
2024/01/31 05:11:49;;;;;;;2.38;0.98;;;;;;;12.72;100.00;99469.19;4993500;28;20459;-84
2024/01/31 05:14:19;;;;;;;1.50;1.27;;;;;;;12.75;100.00;99466.59;4990797;28;20052;-83
2024/01/31 05:16:58;;;;;;;;;;;;;;;;;;;;;
2024/01/31 05:19:27;;;;;;;0.70;0.60;;;;;;;12.82;99.88;99467.44;4993553;28;20041;-85
2024/01/31 05:21:56;;;;;;;2.00;1.25;;;;;;;12.82;100.00;99487.38;4995576;28;20056;-83
2024/01/31 05:24:25;;;;;;;1.42;0.90;;;;;;;12.86;100.00;99483.91;4988915;28;20046;-84
2024/01/31 05:27:03;;;;;;;2.65;1.02;;;;;;;12.85;100.00;99474.38;4993842;28;20148;-84
2024/01/31 05:29:32;;;;;;;1.48;0.70;;;;;;;12.85;100.00;99477.84;4991730;28;20093;-85
2024/01/31 05:32:01;;;;;;;1.17;0.88;;;;;;;12.84;100.00;99476.09;4990491;28;20049;-84
2024/01/31 05:34:37;;;;;;;1.50;1.00;;;;;;;12.76;100.00;99476.13;4994920;28;20054;-83
2024/01/31 05:37:06;;;;;;;3.30;0.80;;;;;;;12.71;100.00;99477.84;4991950;28;20073;-83
2024/01/31 05:39:34;;;;;;;2.45;0.80;;;;;;;12.71;100.00;99480.44;4993904;28;20050;-83
2024/01/31 05:42:05;;;;;;;3.22;0.90;;;;;;;12.71;100.00;99480.44;4992336;28;20064;-84
2024/01/31 05:44:39;;;;;;;1.73;0.95;;;;;;;12.67;100.00;99478.72;4991926;28;20066;-83
2024/01/31 05:47:08;;;;;;;1.90;1.10;;;;;;;12.69;100.00;99512.44;4990246;28;20130;-84
2024/01/31 05:49:36;;;;;;;0.90;0.80;;;;;;;12.60;100.00;99510.72;4997562;28;20056;-85
2024/01/31 05:52:06;;;;;;;2.28;0.95;;;;;;;12.60;100.00;99507.22;4988574;28;20523;-84
2024/01/31 05:54:36;;;;;;;1.50;0.90;;;;;;;12.58;100.00;99469.19;4988787;28;20078;-84
2024/01/31 05:57:09;;;;;;;2.33;0.73;;;;;;;12.57;100.00;99457.09;4997989;28;20050;-84
2024/01/31 05:59:42;;;;;;;2.17;0.80;;;;;;;12.50;100.00;99424.19;4998197;28;20046;-84
2024/01/31 06:02:12;;;;;;;1.85;0.90;;;;;;;12.50;100.00;99415.56;4994326;28;20050;-84
2024/01/31 06:04:51;;;;;;;2.25;1.00;;;;;;;12.45;100.00;99409.50;4998525;28;20050;-84
2024/01/31 06:07:20;;;;;;;2.30;0.73;;;;;;;12.45;100.00;99399.13;4998168;28;20046;-84
2024/01/31 06:09:49;;;;;;;0.93;0.77;;;;;;;12.40;100.00;99395.69;4997574;28;20143;-83
2024/01/31 06:12:19;;;;;;;0.73;0.63;;;;;;;12.36;100.00;99371.44;4999309;28;20061;-83
2024/01/31 06:14:51;;;;;;;1.58;0.90;;;;;;;12.28;100.00;99360.22;4995672;28;20046;-84
2024/01/31 06:17:20;;;;;;;0.90;0.53;;;;;;;12.27;100.00;99354.16;5001489;28;20082;-84
2024/01/31 06:19:49;;;;;;;2.95;0.80;;;;;;;12.26;100.00;99362.81;4997622;28;20099;-84
2024/01/31 06:22:18;;;;;;;1.00;0.60;;;;;;;12.25;100.00;99355.88;4997266;28;20050;-84
2024/01/31 06:24:49;;;;;;;1.00;0.70;;;;;;;12.26;100.00;99347.25;4997076;28;20108;-83
2024/01/31 06:27:19;;;;;;;0.90;0.68;;;;;;;12.30;100.00;99343.81;4997864;28;20046;-83
2024/01/31 06:29:48;;;;;;;1.17;0.73;;;;;;;12.31;100.00;99345.53;4997819;28;20046;-84
2024/01/31 06:32:21;;;;;;;0.98;0.57;;;;;;;12.38;100.00;99345.53;4996688;28;20053;-87
2024/01/31 06:34:55;;;;;;;1.55;0.98;;;;;;;12.38;100.00;99348.97;4996720;28;20068;-83
2024/01/31 06:37:24;;;;;;;1.40;0.95;;;;;;;12.40;100.00;99339.47;4998769;28;20050;-83
2024/01/31 06:39:52;;;;;;;0.80;0.63;;;;;;;12.45;100.00;99344.66;4996808;28;20050;-83
2024/01/31 06:42:23;;;;;;;0.65;0.65;;;;;;;12.48;100.00;99336.84;4979560;28;20574;-84
2024/01/31 06:44:59;;;;;;;0.82;0.52;;;;;;;12.45;100.00;99322.16;4995750;28;20121;-84
2024/01/31 06:47:28;;;;;;;0.88;0.70;;;;;;;12.48;100.00;99334.25;4996143;28;20054;-83
2024/01/31 06:49:58;;;;;;;1.23;0.70;;;;;;;12.50;100.00;99359.34;4992152;28;20050;-84
2024/01/31 06:52:26;;;;;;;1.02;0.80;;;;;;;12.51;100.00;99349.84;4995242;28;20050;-83
2024/01/31 06:54:58;;;;;;;1.08;0.70;;;;;;;12.47;100.00;99345.53;5000394;28;20065;-83
2024/01/31 06:57:29;;;;;;;1.17;0.80;;;;;;;12.49;98.98;99348.97;4997138;28;20054;-83
2024/01/31 06:59:57;;;;;;;3.13;0.70;;;;;;;12.49;98.36;99355.03;4997406;28;20141;-84
2024/01/31 07:02:26;;;;;;;1.23;0.70;;;;;;;12.51;97.33;99342.91;4997246;28;20046;-84
2024/01/31 07:04:55;;;;;;;1.52;0.77;;;;;;;12.51;99.05;99336.88;5000397;28;20068;-83
2024/01/31 07:07:24;;;;;;;0.82;0.43;;;;;;;12.48;98.08;99348.09;4994586;28;20100;-83
2024/01/31 07:09:53;;;;;;;1.05;0.60;;;;;;;12.46;99.62;99338.59;5002175;28;20057;-84
2024/01/31 07:12:23;;;;;;;4.38;0.70;;;;;;;12.40;100.00;99339.47;4995962;28;20137;-84
2024/01/31 07:15:03;;;;;;;1.40;0.57;;;;;;;12.30;100.00;99335.13;4999476;28;20054;-84
2024/01/31 07:17:31;;;;;;;1.25;0.70;;;;;;;12.24;100.00;99314.41;4999277;28;20073;-83
2024/01/31 07:20:00;;;;;;;2.63;0.82;;;;;;;12.25;100.00;99298.81;4996316;28;20473;-83
2024/01/31 07:22:29;;;;;;;1.45;1.00;;;;;;;12.28;99.22;99285.88;4996372;28;20048;-83
2024/01/31 07:25:03;;;;;;;1.63;0.85;;;;;;;12.32;98.32;99277.25;4995450;28;20057;-83
2024/01/31 07:27:32;;;;;;;1.30;0.90;;;;;;;12.38;99.37;99257.34;4998374;28;20054;-83
2024/01/31 07:30:03;;;;;;;1.17;0.70;;;;;;;12.45;98.96;99256.44;5001021;28;20115;-83
2024/01/31 07:32:32;;;;;;;0.65;0.60;;;;;;;12.51;97.82;99246.06;5003170;28;20054;-83
2024/01/31 07:35:00;;;;;;;1.23;0.60;;;;;;;12.54;98.80;99227.88;4990474;28;20047;-83
2024/01/31 07:37:31;;;;;;;0.60;0.60;;;;;;;12.57;97.67;99214.91;5005101;28;20056;-83
2024/01/31 07:40:00;;;;;;;1.20;0.50;;;;;;;12.64;97.42;99228.72;4994106;28;20077;-83
2024/01/31 07:42:29;;;;;;;1.20;0.82;;;;;;;12.65;98.61;99230.47;5003363;28;20049;-84
2024/01/31 07:44:58;;;;;;;1.05;0.73;;;;;;;12.71;97.78;99252.06;4998080;28;20053;-83
2024/01/31 07:47:31;;;;;;;1.10;0.77;;;;;;;12.72;98.16;99266.75;5004873;28;20057;-83
2024/01/31 07:50:00;;;;;;;2.03;0.68;;;;;;;12.79;98.90;99278.84;4998922;28;20050;-83
2024/01/31 07:52:29;;;;;;;1.10;0.70;;;;;;;12.79;100.00;99252.88;4995137;28;20081;-83
2024/01/31 07:54:57;;;;;;;1.95;0.80;;;;;;;12.85;100.00;99275.38;5000432;28;20046;-83
2024/01/31 07:57:26;;;;;;;4.28;1.10;;;;;;;12.87;100.00;99280.53;4996648;28;20054;-83
2024/01/31 07:59:55;;;;;;;0.95;0.75;;;;;;;12.92;100.00;99284.00;4999407;28;20092;-82
2024/01/31 08:02:24;;;;;;;1.52;1.00;;;;;;;12.92;100.00;99281.41;4997061;28;20046;-82
2024/01/31 08:04:56;;;;;;;2.50;1.13;;;;;;;12.93;100.00;99262.34;4995754;28;20050;-83
2024/01/31 08:07:34;;;;;;;1.67;0.90;;;;;;;12.92;100.00;99250.25;4998410;28;20074;-83
2024/01/31 08:10:03;;;;;;;1.42;0.73;;;;;;;12.91;100.00;99258.91;4997019;28;20167;-84
2024/01/31 08:12:31;;;;;;;1.48;0.90;;;;;;;12.93;100.00;99275.34;4988396;28;20049;-84
2024/01/31 08:15:00;;;;;;;2.60;0.90;;;;;;;12.93;100.00;99263.22;4999104;28;20060;-83
2024/01/31 08:17:37;;;;;;;1.00;0.60;;;;;;;12.91;100.00;99245.91;4998569;28;20616;-83
2024/01/31 08:20:09;;;;;;;1.00;0.80;;;;;;;12.92;100.00;99247.66;4993270;28;20517;-83
2024/01/31 08:22:38;;;;;;;0.82;0.50;;;;;;;12.94;100.00;99233.81;4995153;28;20054;-83
2024/01/31 08:25:09;;;;;;;0.75;0.70;;;;;;;12.95;100.00;99206.97;4993883;28;20070;-84
2024/01/31 08:27:40;;;;;;;1.23;0.90;;;;;;;12.96;100.00;99226.00;4993944;28;20057;-83
2024/01/31 08:30:10;;;;;;;2.37;1.10;;;;;;;12.94;100.00;99213.03;4995344;28;20050;-83
2024/01/31 08:32:39;;;;;;;0.82;0.50;;;;;;;12.85;100.00;99181.03;4998061;28;20050;-83
2024/01/31 08:35:13;;;;;;;0.60;0.50;;;;;;;12.85;100.00;99204.41;4994827;28;20056;-83
2024/01/31 08:37:44;;;;;;;1.42;0.70;;;;;;;12.77;100.00;99183.69;4998895;28;20488;-83
2024/01/31 08:40:14;;;;;;;0.65;0.47;;;;;;;12.69;100.00;99211.41;4991713;28;20046;-83
2024/01/31 08:42:43;;;;;;;0.90;0.68;;;;;;;12.70;99.34;99202.75;4991957;28;20078;-83
2024/01/31 08:45:13;;;;;;;0.90;0.70;;;;;;;12.73;98.77;99192.34;4995819;28;20140;-83
2024/01/31 08:47:44;;;;;;;1.30;0.80;;;;;;;12.69;98.92;99139.63;4998050;28;20516;-82
2024/01/31 08:50:15;;;;;;;3.35;0.80;;;;;;;12.71;98.94;99148.25;4995362;28;20058;-83
2024/01/31 08:52:44;;;;;;;0.50;0.50;;;;;;;12.73;98.40;99149.09;4990045;28;20145;-84
2024/01/31 08:55:13;;;;;;;0.52;0.40;;;;;;;12.75;95.29;99124.00;5000057;28;20053;-83
2024/01/31 08:57:46;;;;;;;0.77;0.40;;;;;;;12.78;95.41;99115.31;4994167;28;20058;-83
2024/01/31 09:00:16;;;;;;;1.15;0.68;;;;;;;12.83;93.72;99112.69;4999556;28;20137;-83
2024/01/31 09:02:45;;;;;;;0.50;0.43;;;;;;;12.77;94.03;99111.88;4992757;28;20412;-84
2024/01/31 09:05:19;;;;;;;0.52;0.50;;;;;;;12.80;95.08;99121.38;5001324;28;20050;-83
2024/01/31 09:07:51;;;;;;;0.70;0.60;;;;;;;12.79;95.42;99130.03;4998416;28;20076;-82
2024/01/31 09:10:21;;;;;;;2.20;0.55;;;;;;;12.75;96.91;99134.38;4997335;28;20057;-83
2024/01/31 09:12:50;;;;;;;1.27;0.80;;;;;;;12.74;96.04;99143.03;4984576;28;20065;-83
2024/01/31 09:15:19;;;;;;;0.73;0.60;;;;;;;12.75;96.42;99147.34;4998497;28;20066;-83
2024/01/31 09:17:53;;;;;;;0.98;0.68;;;;;;;12.72;96.05;99134.41;4996463;28;20511;-83
2024/01/31 09:20:23;;;;;;;0.80;0.50;;;;;;;12.65;94.14;99140.50;4995001;28;20108;-82
2024/01/31 09:22:52;;;;;;;0.90;0.60;;;;;;;12.61;95.80;99143.97;4997956;28;20050;-83
2024/01/31 09:25:21;;;;;;;2.13;0.63;;;;;;;12.65;96.23;99160.41;4992951;28;20050;-83
2024/01/31 09:27:52;;;;;;;0.77;0.55;;;;;;;12.67;96.53;99151.72;4991029;28;20060;-82
2024/01/31 09:30:21;;;;;;;1.17;0.60;;;;;;;12.73;96.39;99150.81;4999797;28;20077;-83
2024/01/31 09:32:50;;;;;;;0.90;0.50;;;;;;;12.75;96.50;99149.94;4991021;28;20057;-83
2024/01/31 09:35:19;;;;;;;0.85;0.50;;;;;;;12.77;94.77;99137.81;4990276;28;20058;-83
2024/01/31 09:37:54;;;;;;;0.90;0.60;;;;;;;12.76;95.76;99141.31;4992526;28;20057;-83
2024/01/31 09:40:23;;;;;;;0.70;0.52;;;;;;;12.83;93.12;99146.44;4990257;28;20097;-83
2024/01/31 09:42:56;;;;;;;0.50;0.50;;;;;;;12.85;92.49;99145.59;4992661;28;20482;-83
2024/01/31 09:45:29;;;;;;;0.90;0.70;;;;;;;12.90;93.05;99174.97;4995511;28;20046;-82
2024/01/31 09:48:02;;;;;;;0.85;0.50;;;;;;;12.96;95.40;99205.22;4995755;28;20047;-82
2024/01/31 09:50:31;;;;;;;0.82;0.60;;;;;;;12.96;91.97;99163.69;4997867;28;20053;-83
2024/01/31 09:53:06;;;;;;;0.63;0.50;;;;;;;13.04;95.41;99158.47;4995569;28;20053;-83
2024/01/31 09:55:38;;;;;;;0.52;0.52;;;;;;;13.07;97.54;99159.28;4993108;28;20069;-83
2024/01/31 09:58:06;;;;;;;;;;;;;;;13.11;96.04;99173.13;4995958;28;20141;-83
2024/01/31 10:00:35;;;;;;;0.95;0.60;;;;;;;13.09;100.00;99195.66;4992877;28;19930;-83
2024/01/31 10:03:05;;;;;;;0.80;0.60;;;;;;;13.10;100.00;99198.25;4994231;28;20094;-84
2024/01/31 10:05:42;;;;;;;1.92;1.15;;;;;;;13.06;100.00;99186.16;4994631;28;20393;-84
2024/01/31 10:08:14;;;;;;;1.05;0.73;;;;;;;13.05;100.00;99205.16;4992161;28;20499;-83
2024/01/31 10:10:43;;;;;;;0.80;0.65;;;;;;;13.00;100.00;99170.59;4995325;28;20493;-84
2024/01/31 10:13:14;;;;;;;1.65;0.60;;;;;;;13.00;100.00;99170.59;4990095;28;20054;-84
2024/01/31 10:15:43;;;;;;;0.98;0.63;;;;;;;12.98;100.00;99154.16;4997615;28;20093;-85
2024/01/31 10:18:11;;;;;;;2.20;0.55;;;;;;;12.95;100.00;99156.78;4996473;28;20050;-85
2024/01/31 10:20:40;;;;;;;1.05;0.60;;;;;;;12.90;100.00;99142.97;4998299;28;20133;-84
2024/01/31 10:23:21;;;;;;;0.85;0.70;;;;;;;12.84;100.00;99137.81;4998368;28;20057;-84
2024/01/31 10:25:50;;;;;;;0.77;0.60;;;;;;;12.79;100.00;99125.72;4993556;28;20042;-84
2024/01/31 10:28:20;;;;;;;0.40;0.40;;;;;;;12.75;100.00;99124.00;4992666;28;20046;-84
2024/01/31 10:30:49;;;;;;;0.65;0.60;;;;;;;12.71;100.00;99117.13;5000113;28;20429;-84
2024/01/31 10:33:24;;;;;;;0.98;0.60;;;;;;;12.70;100.00;99106.75;4997699;28;20086;-84
2024/01/31 10:35:54;;;;;;;0.85;0.50;;;;;;;12.68;100.00;99096.34;4996250;28;20082;-84
2024/01/31 10:38:26;;;;;;;0.70;0.65;;;;;;;12.62;100.00;99091.22;5000811;28;20097;-84
2024/01/31 10:40:57;;;;;;;0.50;0.50;;;;;;;12.62;100.00;99093.81;4993424;28;20136;-85
2024/01/31 10:43:31;;;;;;;1.00;0.47;;;;;;;12.58;100.00;99105.06;5005860;28;20128;-84
2024/01/31 10:46:00;;;;;;;0.57;0.35;;;;;;;12.55;100.00;99115.44;5004116;28;20129;-84
2024/01/31 10:48:29;;;;;;;0.60;0.45;;;;;;;12.54;100.00;99114.59;5005422;28;20050;-84
2024/01/31 10:51:03;;;;;;;2.03;0.50;;;;;;;12.53;100.00;99127.59;5000795;28;20050;-83
2024/01/31 10:53:35;;;;;;;0.52;0.40;;;;;;;12.54;100.00;99130.16;5004262;28;20133;-84
2024/01/31 10:56:06;;;;;;;0.55;0.40;;;;;;;12.53;100.00;99119.81;5005771;28;20559;-84
2024/01/31 10:58:35;;;;;;;0.80;0.60;;;;;;;12.53;100.00;99118.06;5004393;28;20157;-83
2024/01/31 11:01:11;;;;;;;2.00;0.70;;;;;;;12.55;100.00;99111.16;5007359;28;20056;-84
2024/01/31 11:03:44;;;;;;;1.17;0.80;;;;;;;12.55;100.00;99105.06;5024968;28;20045;-84
2024/01/31 11:06:12;;;;;;;0.88;0.57;;;;;;;12.57;100.00;99103.34;5020923;28;20041;-84
2024/01/31 11:08:47;;;;;;;1.20;0.60;;;;;;;12.60;100.00;99082.56;5026715;28;20066;-84
2024/01/31 11:11:20;;;;;;;1.10;0.60;;;;;;;12.60;100.00;99082.56;5014020;28;20042;-84
2024/01/31 11:13:56;;;;;;;1.50;0.80;;;;;;;12.63;100.00;99082.56;5014929;28;20065;-83
2024/01/31 11:16:30;;;;;;;1.58;0.82;;;;;;;12.64;100.00;99067.84;5024375;28;20054;-84
2024/01/31 11:19:00;;;;;;;1.00;0.60;;;;;;;12.63;100.00;99061.78;5019647;28;20110;-83
2024/01/31 11:21:29;;;;;;;0.50;0.40;;;;;;;12.64;100.00;99070.44;5009987;28;20060;-84
2024/01/31 11:23:59;;;;;;;1.75;0.68;;;;;;;12.65;100.00;99075.63;4991536;28;20439;-83
2024/01/31 11:26:35;;;;;;;0.93;0.52;;;;;;;12.64;100.00;99071.28;4992541;28;20138;-84
2024/01/31 11:29:04;;;;;;;0.60;0.40;;;;;;;12.65;100.00;99073.03;5003944;28;20567;-84
2024/01/31 11:31:34;;;;;;;0.73;0.50;;;;;;;12.66;100.00;99072.16;4995839;28;20105;-84
2024/01/31 11:34:05;;;;;;;1.45;0.60;;;;;;;12.68;100.00;99074.75;5001090;28;20058;-84
2024/01/31 11:36:41;;;;;;;1.05;0.60;;;;;;;12.70;100.00;99073.00;4995195;28;20526;-83
2024/01/31 11:39:12;;;;;;;0.80;0.40;;;;;;;12.75;100.00;99079.03;4990834;28;20058;-84
2024/01/31 11:41:41;;;;;;;0.85;0.50;;;;;;;12.78;100.00;99077.28;4998837;28;20057;-84
2024/01/31 11:44:11;;;;;;;2.22;0.20;;;;;;;12.79;100.00;99073.81;4998414;28;20050;-83
2024/01/31 11:46:40;;;;;;;1.08;0.40;;;;;;;12.82;100.00;99082.44;4993070;28;20050;-83
2024/01/31 11:49:08;;;;;;;0.77;0.60;;;;;;;12.85;100.00;99077.22;4987996;28;20443;-83
2024/01/31 11:51:37;;;;;;;0.75;0.50;;;;;;;12.85;100.00;99070.31;4991940;28;20050;-83
2024/01/31 11:54:06;;;;;;;0.70;0.60;;;;;;;12.85;100.00;99077.22;4992882;28;20043;-83
2024/01/31 11:56:40;;;;;;;1.65;0.90;;;;;;;12.86;100.00;99084.16;4995596;28;20062;-83
2024/01/31 11:59:10;;;;;;;0.60;0.60;;;;;;;12.82;100.00;99088.47;4997428;28;20050;-83
2024/01/31 12:01:39;;;;;;;3.08;0.93;;;;;;;12.79;100.00;99084.19;4994348;28;20051;-83